createdAt,value
2017-04-18T00:00:09.901Z,82.07
2017-04-18T00:00:24.279Z,82.35
2017-04-18T00:00:38.444Z,82.16
2017-04-18T00:00:52.598Z,82.26
2017-04-18T00:01:06.798Z,82.26
2017-04-18T00:01:20.954Z,82.35
2017-04-18T00:01:35.094Z,82.35
2017-04-18T00:01:49.273Z,82.45
2017-04-18T00:02:03.403Z,81.87
2017-04-18T00:02:17.513Z,81.78
2017-04-18T00:02:31.686Z,81.97
2017-04-18T00:02:45.842Z,81.87
2017-04-18T00:03:00.029Z,81.97
2017-04-18T00:03:14.185Z,81.78
2017-04-18T00:03:28.319Z,81.78
2017-04-18T00:03:42.466Z,81.87
2017-04-18T00:03:56.831Z,81.78
2017-04-18T00:04:10.944Z,81.87
2017-04-18T00:04:25.166Z,81.78
2017-04-18T00:04:39.322Z,81.59
2017-04-18T00:04:53.578Z,81.78
2017-04-18T00:05:07.716Z,81.87
2017-04-18T00:05:21.829Z,81.2
2017-04-18T00:05:35.925Z,81.68
2017-04-18T00:05:50.102Z,81.78
2017-04-18T00:06:04.337Z,81.87
2017-04-18T00:06:18.534Z,81.49
2017-04-18T00:06:32.728Z,81.68
2017-04-18T00:06:46.901Z,81.49
2017-04-18T00:07:01.062Z,81.49
2017-04-18T00:07:15.218Z,81.59
2017-04-18T00:07:29.341Z,82.26
2017-04-18T00:07:43.487Z,82.74
2017-04-18T00:07:57.690Z,82.84
2017-04-18T00:08:11.867Z,82.64
2017-04-18T00:08:26.034Z,82.74
2017-04-18T00:08:40.122Z,82.64
2017-04-18T00:08:54.256Z,82.12
2017-04-18T00:09:08.396Z,82.21
2017-04-18T00:09:22.490Z,82.93
2017-04-18T00:09:36.653Z,83.27
2017-04-18T00:09:50.743Z,83.8
2017-04-18T00:10:04.927Z,83.94
2017-04-18T00:10:19.020Z,84.27
2017-04-18T00:10:33.174Z,84.61
2017-04-18T00:10:47.339Z,84.81
2017-04-18T00:11:01.513Z,84.81
2017-04-18T00:11:15.680Z,84.91
2017-04-18T00:11:29.764Z,84.81
2017-04-18T00:11:44.193Z,84.91
2017-04-18T00:11:58.338Z,85
2017-04-18T00:12:12.509Z,85
2017-04-18T00:12:26.662Z,85.19
2017-04-18T00:12:40.790Z,85.48
2017-04-18T00:12:55.058Z,85.58
2017-04-18T00:13:09.191Z,85.86
2017-04-18T00:13:23.346Z,85.67
2017-04-18T00:13:37.527Z,86.25
2017-04-18T00:13:51.651Z,86.34
2017-04-18T00:14:05.862Z,86.25
2017-04-18T00:14:20.016Z,85.86
2017-04-18T00:14:34.179Z,86.63
2017-04-18T00:14:48.298Z,87.21
2017-04-18T00:15:02.480Z,87.59
2017-04-18T00:15:16.635Z,87.4
2017-04-18T00:15:30.734Z,87.11
2017-04-18T00:15:44.917Z,87.3
2017-04-18T00:15:59.052Z,86.92
2017-04-18T00:16:13.147Z,87.01
2017-04-18T00:16:27.275Z,86.82
2017-04-18T00:16:41.427Z,87.59
2017-04-18T00:16:55.503Z,86.92
2017-04-18T00:17:09.630Z,87.11
2017-04-18T00:17:23.804Z,86.82
2017-04-18T00:17:37.991Z,87.21
2017-04-18T00:17:52.131Z,87.11
2017-04-18T00:18:06.290Z,87.3
2017-04-18T00:18:20.471Z,87.3
2017-04-18T00:18:34.659Z,87.11
2017-04-18T00:18:48.826Z,87.01
2017-04-18T00:19:03.196Z,86.82
2017-04-18T00:19:17.279Z,86.92
2017-04-18T00:19:31.439Z,87.11
2017-04-18T00:19:45.590Z,87.21
2017-04-18T00:19:59.713Z,87.01
2017-04-18T00:20:13.870Z,87.4
2017-04-18T00:20:28.001Z,87.01
2017-04-18T00:20:42.173Z,87.11
2017-04-18T00:20:56.272Z,87.11
2017-04-18T00:21:10.392Z,87.11
2017-04-18T00:21:24.506Z,87.4
2017-04-18T00:21:38.620Z,87.4
2017-04-18T00:21:52.868Z,87.01
2017-04-18T00:22:06.985Z,86.44
2017-04-18T00:22:21.126Z,86.92
2017-04-18T00:22:35.245Z,86.72
2017-04-18T00:22:49.420Z,86.44
2017-04-18T00:23:03.615Z,86.72
2017-04-18T00:23:17.796Z,87.01
2017-04-18T00:23:32.004Z,87.01
2017-04-18T00:23:46.115Z,87.21
2017-04-18T00:24:00.253Z,86.82
2017-04-18T00:24:14.824Z,86.96
2017-04-18T00:24:28.986Z,86.92
2017-04-18T00:24:43.184Z,86.44
2017-04-18T00:24:57.319Z,86.63
2017-04-18T00:25:11.451Z,86.82
2017-04-18T00:25:25.569Z,87.01
2017-04-18T00:25:39.721Z,87.01
2017-04-18T00:25:53.891Z,87.59
2017-04-18T00:26:08.049Z,87.59
2017-04-18T00:26:22.221Z,87.49
2017-04-18T00:26:36.417Z,87.49
2017-04-18T00:26:50.604Z,87.3
2017-04-18T00:27:04.763Z,87.59
2017-04-18T00:27:18.891Z,87.68
2017-04-18T00:27:33.620Z,88.07
2017-04-18T00:27:47.726Z,87.78
2017-04-18T00:28:01.845Z,87.88
2017-04-18T00:28:15.923Z,87.98
2017-04-18T00:28:30.078Z,87.78
2017-04-18T00:28:44.343Z,87.98
2017-04-18T00:28:58.473Z,87.59
2017-04-18T00:29:12.632Z,87.98
2017-04-18T00:29:26.786Z,87.59
2017-04-18T00:29:40.957Z,87.4
2017-04-18T00:29:55.193Z,87.88
2017-04-18T00:30:09.309Z,87.88
2017-04-18T00:30:23.486Z,87.78
2017-04-18T00:30:37.656Z,87.59
2017-04-18T00:30:51.799Z,87.49
2017-04-18T00:31:06.033Z,87.59
2017-04-18T00:31:20.134Z,87.98
2017-04-18T00:31:34.342Z,87.59
2017-04-18T00:31:48.528Z,87.78
2017-04-18T00:32:02.827Z,87.78
2017-04-18T00:32:17.015Z,87.88
2017-04-18T00:32:31.206Z,88.07
2017-04-18T00:32:45.357Z,88.74
2017-04-18T00:32:59.513Z,89.22
2017-04-18T00:33:13.657Z,88.93
2017-04-18T00:33:27.770Z,89.03
2017-04-18T00:33:41.889Z,88.65
2017-04-18T00:33:56.036Z,88.84
2017-04-18T00:34:10.462Z,88.93
2017-04-18T00:34:24.622Z,88.93
2017-04-18T00:34:38.723Z,89.03
2017-04-18T00:34:52.870Z,89.03
2017-04-18T00:35:07.027Z,89.22
2017-04-18T00:35:21.172Z,89.51
2017-04-18T00:35:35.353Z,89.99
2017-04-18T00:35:49.446Z,89.89
2017-04-18T00:36:03.532Z,89.79
2017-04-18T00:36:17.680Z,89.51
2017-04-18T00:36:31.871Z,90.18
2017-04-18T00:36:46.045Z,90.08
2017-04-18T00:37:00.112Z,90.37
2017-04-18T00:37:14.236Z,89.99
2017-04-18T00:37:28.401Z,90.08
2017-04-18T00:37:42.602Z,90.08
2017-04-18T00:37:56.758Z,89.7
2017-04-18T00:38:10.891Z,89.79
2017-04-18T00:38:24.975Z,89.7
2017-04-18T00:38:39.087Z,89.89
2017-04-18T00:38:53.289Z,89.7
2017-04-18T00:39:07.465Z,89.61
2017-04-18T00:39:21.632Z,89.32
2017-04-18T00:39:35.808Z,89.51
2017-04-18T00:39:50.005Z,90.08
2017-04-18T00:40:04.205Z,89.99
2017-04-18T00:40:18.342Z,89.79
2017-04-18T00:40:32.414Z,89.79
2017-04-18T00:40:46.564Z,89.51
2017-04-18T00:41:00.741Z,89.51
2017-04-18T00:41:14.896Z,89.7
2017-04-18T00:41:29.004Z,89.51
2017-04-18T00:41:43.178Z,89.79
2017-04-18T00:41:57.337Z,89.79
2017-04-18T00:42:11.438Z,89.89
2017-04-18T00:42:25.559Z,88.93
2017-04-18T00:42:39.737Z,89.03
2017-04-18T00:42:53.880Z,89.32
2017-04-18T00:43:08.048Z,89.22
2017-04-18T00:43:22.202Z,89.12
2017-04-18T00:43:36.383Z,89.79
2017-04-18T00:43:50.507Z,89.7
2017-04-18T00:44:04.680Z,90.18
2017-04-18T00:44:18.844Z,89.7
2017-04-18T00:44:32.984Z,89.61
2017-04-18T00:44:47.158Z,89.99
2017-04-18T00:45:01.277Z,90.75
2017-04-18T00:45:15.475Z,90.75
2017-04-18T00:45:29.608Z,89.99
2017-04-18T00:45:43.718Z,89.99
2017-04-18T00:45:57.805Z,90.08
2017-04-18T00:46:11.966Z,90.66
2017-04-18T00:46:26.081Z,90.47
2017-04-18T00:46:40.200Z,90.66
2017-04-18T00:46:54.324Z,90.85
2017-04-18T00:47:08.497Z,90.18
2017-04-18T00:47:22.638Z,90.47
2017-04-18T00:47:36.766Z,90.18
2017-04-18T00:47:51.137Z,90.75
2017-04-18T00:48:05.513Z,91.24
2017-04-18T00:48:19.664Z,90.47
2017-04-18T00:48:33.804Z,90.56
2017-04-18T00:48:47.913Z,90.75
2017-04-18T00:49:02.277Z,91.24
2017-04-18T00:49:16.577Z,91.72
2017-04-18T00:49:30.717Z,92.1
2017-04-18T00:49:44.824Z,92.1
2017-04-18T00:49:58.985Z,92.19
2017-04-18T00:50:13.184Z,91.81
2017-04-18T00:50:27.308Z,91.81
2017-04-18T00:50:41.478Z,91.62
2017-04-18T00:50:55.597Z,91.72
2017-04-18T00:51:09.744Z,91.42
2017-04-18T00:51:23.876Z,91.33
2017-04-18T00:51:37.995Z,91.05
2017-04-18T00:51:52.107Z,91.33
2017-04-18T00:52:06.202Z,91.81
2017-04-18T00:52:20.363Z,92.1
2017-04-18T00:52:34.486Z,92.1
2017-04-18T00:52:48.621Z,92
2017-04-18T00:53:02.833Z,91.24
2017-04-18T00:53:16.987Z,91.42
2017-04-18T00:53:31.158Z,91.33
2017-04-18T00:53:45.313Z,91.52
2017-04-18T00:53:59.437Z,91.24
2017-04-18T00:54:13.579Z,91.62
2017-04-18T00:54:27.682Z,90.95
2017-04-18T00:54:41.821Z,91.52
2017-04-18T00:54:56.023Z,91.14
2017-04-18T00:55:10.146Z,91.24
2017-04-18T00:55:24.278Z,91.52
2017-04-18T00:55:38.419Z,91.14
2017-04-18T00:55:52.560Z,91.33
2017-04-18T00:56:06.669Z,91.24
2017-04-18T00:56:20.763Z,91.33
2017-04-18T00:56:34.875Z,91.33
2017-04-18T00:56:49.055Z,91.52
2017-04-18T00:57:03.307Z,91.42
2017-04-18T00:57:17.454Z,90.95
2017-04-18T00:57:31.539Z,91.24
2017-04-18T00:57:45.667Z,91.33
2017-04-18T00:57:59.869Z,91.33
2017-04-18T00:58:14.077Z,91.24
2017-04-18T00:58:28.228Z,91.14
2017-04-18T00:58:42.365Z,91.33
2017-04-18T00:58:56.556Z,91.42
2017-04-18T00:59:10.709Z,91.24
2017-04-18T00:59:24.821Z,91.24
2017-04-18T00:59:38.956Z,91.14
2017-04-18T00:59:53.122Z,91.33
2017-04-18T01:00:07.252Z,91.05
2017-04-18T01:00:21.335Z,91.24
2017-04-18T01:00:35.497Z,91.05
2017-04-18T01:00:49.611Z,91.33
2017-04-18T01:01:03.765Z,91.14
2017-04-18T01:01:17.908Z,91.24
2017-04-18T01:01:32.134Z,91.33
2017-04-18T01:01:46.351Z,91.14
2017-04-18T01:02:00.565Z,90.95
2017-04-18T01:02:16.333Z,90.95
2017-04-18T01:02:31.890Z,91.24
2017-04-18T01:02:46.214Z,91.33
2017-04-18T01:03:00.375Z,91.24
2017-04-18T01:03:14.543Z,91.14
2017-04-18T01:03:28.741Z,91.42
2017-04-18T01:03:45.035Z,91.24
2017-04-18T01:03:59.473Z,91.24
2017-04-18T01:04:13.839Z,91.05
2017-04-18T01:04:28.041Z,91.42
2017-04-18T01:04:42.164Z,92.19
2017-04-18T01:04:56.310Z,91.62
2017-04-18T01:05:10.372Z,91.33
2017-04-18T01:05:24.549Z,91.81
2017-04-18T01:05:38.747Z,91.91
2017-04-18T01:05:52.878Z,91.52
2017-04-18T01:06:07.058Z,91.52
2017-04-18T01:06:21.192Z,91.52
2017-04-18T01:06:35.300Z,91.72
2017-04-18T01:06:49.495Z,91.62
2017-04-18T01:07:03.662Z,90.95
2017-04-18T01:07:17.959Z,91.91
2017-04-18T01:07:32.099Z,92.1
2017-04-18T01:07:46.237Z,91.91
2017-04-18T01:08:00.439Z,91.14
2017-04-18T01:08:14.555Z,91.72
2017-04-18T01:08:28.753Z,91.91
2017-04-18T01:08:42.920Z,91.81
2017-04-18T01:08:57.090Z,91.24
2017-04-18T01:09:11.167Z,91.52
2017-04-18T01:09:25.410Z,92
2017-04-18T01:09:39.584Z,92.1
2017-04-18T01:09:53.790Z,91.91
2017-04-18T01:10:07.962Z,92.29
2017-04-18T01:10:22.135Z,91.24
2017-04-18T01:10:36.255Z,91.05
2017-04-18T01:10:50.407Z,91.52
2017-04-18T01:11:04.532Z,92.19
2017-04-18T01:11:18.626Z,92.19
2017-04-18T01:11:32.776Z,92.29
2017-04-18T01:11:46.893Z,92
2017-04-18T01:12:01.066Z,92.1
2017-04-18T01:12:15.225Z,92.19
2017-04-18T01:12:29.434Z,91.91
2017-04-18T01:12:43.591Z,92
2017-04-18T01:12:57.871Z,92.19
2017-04-18T01:13:12.020Z,91.91
2017-04-18T01:13:26.169Z,92.1
2017-04-18T01:13:40.297Z,92
2017-04-18T01:13:54.433Z,92.29
2017-04-18T01:14:08.625Z,91.42
2017-04-18T01:14:22.818Z,92.1
2017-04-18T01:14:36.891Z,91.91
2017-04-18T01:14:51.080Z,91.72
2017-04-18T01:15:05.271Z,90.95
2017-04-18T01:15:19.441Z,91.05
2017-04-18T01:15:33.574Z,91.24
2017-04-18T01:15:47.752Z,92.29
2017-04-18T01:16:01.834Z,91.72
2017-04-18T01:16:15.982Z,92.39
2017-04-18T01:16:30.122Z,91.91
2017-04-18T01:16:44.297Z,91.81
2017-04-18T01:16:58.433Z,92.1
2017-04-18T01:17:12.594Z,92
2017-04-18T01:17:26.779Z,92.1
2017-04-18T01:17:40.891Z,92.1
2017-04-18T01:17:55.019Z,92.1
2017-04-18T01:18:09.166Z,91.91
2017-04-18T01:18:23.286Z,92.19
2017-04-18T01:18:37.422Z,92.1
2017-04-18T01:18:51.518Z,91.91
2017-04-18T01:19:05.644Z,91.81
2017-04-18T01:19:19.823Z,91.72
2017-04-18T01:19:34.490Z,91.91
2017-04-18T01:19:48.622Z,91.81
2017-04-18T01:20:02.784Z,91.81
2017-04-18T01:20:16.945Z,92.48
2017-04-18T01:20:31.077Z,92
2017-04-18T01:20:45.443Z,91.81
2017-04-18T01:20:59.546Z,91.81
2017-04-18T01:21:13.639Z,92.1
2017-04-18T01:21:27.767Z,92.1
2017-04-18T01:21:42.060Z,92.1
2017-04-18T01:21:56.181Z,91.91
2017-04-18T01:22:12.348Z,92.19
2017-04-18T01:22:26.739Z,91.91
2017-04-18T01:22:40.872Z,91.81
2017-04-18T01:22:54.966Z,91.62
2017-04-18T01:23:09.074Z,92
2017-04-18T01:23:23.148Z,91.91
2017-04-18T01:23:37.276Z,92.1
2017-04-18T01:23:51.431Z,92
2017-04-18T01:24:05.648Z,92
2017-04-18T01:24:19.996Z,91.81
2017-04-18T01:24:34.143Z,91.91
2017-04-18T01:24:48.270Z,91.72
2017-04-18T01:25:02.365Z,92.29
2017-04-18T01:25:16.804Z,91.91
2017-04-18T01:25:30.994Z,91.91
2017-04-18T01:25:45.147Z,91.72
2017-04-18T01:25:59.266Z,91.91
2017-04-18T01:26:13.375Z,91.81
2017-04-18T01:26:27.516Z,92.1
2017-04-18T01:26:41.643Z,92.19
2017-04-18T01:26:55.826Z,91.81
2017-04-18T01:27:09.927Z,92.19
2017-04-18T01:27:24.065Z,92.39
2017-04-18T01:27:38.166Z,92.39
2017-04-18T01:27:52.261Z,91.91
2017-04-18T01:28:06.396Z,92.48
2017-04-18T01:28:20.518Z,91.81
2017-04-18T01:28:34.722Z,91.81
2017-04-18T01:28:49.019Z,91.72
2017-04-18T01:29:03.184Z,91.91
2017-04-18T01:29:17.350Z,92
2017-04-18T01:29:31.470Z,91.72
2017-04-18T01:29:45.677Z,91.91
2017-04-18T01:29:59.818Z,92
2017-04-18T01:30:13.954Z,92
2017-04-18T01:30:28.160Z,92.19
2017-04-18T01:30:42.362Z,91.72
2017-04-18T01:30:56.507Z,92
2017-04-18T01:31:10.651Z,91.81
2017-04-18T01:31:24.809Z,92
2017-04-18T01:31:38.995Z,92
2017-04-18T01:31:53.158Z,91.91
2017-04-18T01:32:07.482Z,92
2017-04-18T01:32:21.649Z,92.1
2017-04-18T01:32:35.850Z,91.91
2017-04-18T01:32:49.954Z,91.91
2017-04-18T01:33:04.100Z,91.81
2017-04-18T01:33:18.287Z,91.81
2017-04-18T01:33:32.446Z,92.1
2017-04-18T01:33:46.540Z,92.29
2017-04-18T01:34:00.657Z,92.39
2017-04-18T01:34:14.836Z,92.48
2017-04-18T01:34:29.223Z,92.48
2017-04-18T01:34:43.360Z,92
2017-04-18T01:34:57.479Z,92.39
2017-04-18T01:35:11.661Z,92.39
2017-04-18T01:35:25.827Z,92.48
2017-04-18T01:35:39.982Z,92.29
2017-04-18T01:35:54.180Z,92.1
2017-04-18T01:36:08.295Z,92.39
2017-04-18T01:36:22.453Z,92.29
2017-04-18T01:36:36.589Z,92.68
2017-04-18T01:36:50.746Z,92.68
2017-04-18T01:37:04.911Z,92.86
2017-04-18T01:37:19.065Z,92.96
2017-04-18T01:37:33.343Z,92.96
2017-04-18T01:37:47.529Z,92.77
2017-04-18T01:38:01.655Z,92.86
2017-04-18T01:38:15.798Z,92.68
2017-04-18T01:38:29.934Z,93.25
2017-04-18T01:38:44.042Z,92.96
2017-04-18T01:38:58.337Z,92.86
2017-04-18T01:39:12.521Z,92.58
2017-04-18T01:39:26.651Z,92.86
2017-04-18T01:39:40.823Z,93.35
2017-04-18T01:39:55.011Z,92.68
2017-04-18T01:40:09.190Z,92.96
2017-04-18T01:40:23.299Z,92.68
2017-04-18T01:40:37.417Z,92.77
2017-04-18T01:40:51.567Z,92.68
2017-04-18T01:41:05.701Z,93.15
2017-04-18T01:41:19.859Z,93.35
2017-04-18T01:41:33.999Z,92.96
2017-04-18T01:41:48.136Z,93.25
2017-04-18T01:42:02.306Z,93.15
2017-04-18T01:42:16.660Z,92.96
2017-04-18T01:42:30.768Z,92.58
2017-04-18T01:42:44.888Z,92.58
2017-04-18T01:42:59.053Z,92.96
2017-04-18T01:43:13.191Z,94.12
2017-04-18T01:43:27.481Z,93.15
2017-04-18T01:43:41.666Z,93.35
2017-04-18T01:43:55.835Z,93.35
2017-04-18T01:44:09.957Z,93.15
2017-04-18T01:44:24.103Z,93.15
2017-04-18T01:44:38.382Z,93.35
2017-04-18T01:44:52.514Z,93.35
2017-04-18T01:45:06.689Z,93.44
2017-04-18T01:45:20.860Z,93.35
2017-04-18T01:45:35.070Z,92.58
2017-04-18T01:45:49.198Z,92.86
2017-04-18T01:46:03.303Z,92.96
2017-04-18T01:46:17.411Z,93.25
2017-04-18T01:46:31.502Z,93.44
2017-04-18T01:46:45.680Z,93.54
2017-04-18T01:46:59.857Z,93.54
2017-04-18T01:47:14.022Z,93.25
2017-04-18T01:47:28.098Z,93.44
2017-04-18T01:47:42.190Z,93.35
2017-04-18T01:47:56.369Z,93.35
2017-04-18T01:48:10.548Z,93.15
2017-04-18T01:48:24.698Z,93.15
2017-04-18T01:48:38.796Z,93.15
2017-04-18T01:48:52.933Z,92.96
2017-04-18T01:49:07.083Z,93.35
2017-04-18T01:49:21.215Z,93.25
2017-04-18T01:49:35.550Z,92.77
2017-04-18T01:49:49.712Z,93.44
2017-04-18T01:50:03.836Z,93.25
2017-04-18T01:50:18.546Z,93.44
2017-04-18T01:50:32.738Z,93.54
2017-04-18T01:50:46.863Z,93.82
2017-04-18T01:51:01.006Z,93.73
2017-04-18T01:51:15.114Z,93.92
2017-04-18T01:51:29.252Z,93.44
2017-04-18T01:51:43.402Z,93.82
2017-04-18T01:51:57.574Z,93.73
2017-04-18T01:52:11.703Z,94.4
2017-04-18T01:52:25.854Z,93.63
2017-04-18T01:52:40.032Z,94.79
2017-04-18T01:52:54.155Z,94.79
2017-04-18T01:53:08.298Z,94.79
2017-04-18T01:53:22.495Z,94.88
2017-04-18T01:53:36.607Z,94.31
2017-04-18T01:53:50.730Z,94.59
2017-04-18T01:54:04.873Z,94.49
2017-04-18T01:54:19.019Z,94.49
2017-04-18T01:54:33.155Z,94.49
2017-04-18T01:54:47.366Z,94.21
2017-04-18T01:55:01.530Z,94.98
2017-04-18T01:55:15.676Z,94.88
2017-04-18T01:55:29.797Z,95.17
2017-04-18T01:55:43.957Z,94.4
2017-04-18T01:55:58.334Z,94.31
2017-04-18T01:56:12.531Z,94.98
2017-04-18T01:56:26.772Z,94.59
2017-04-18T01:56:40.950Z,94.21
2017-04-18T01:56:55.080Z,95.07
2017-04-18T01:57:09.184Z,94.59
2017-04-18T01:57:23.333Z,94.12
2017-04-18T01:57:37.545Z,94.69
2017-04-18T01:57:51.775Z,94.49
2017-04-18T01:58:05.901Z,94.88
2017-04-18T01:58:20.072Z,94.88
2017-04-18T01:58:34.270Z,94.59
2017-04-18T01:58:48.399Z,94.79
2017-04-18T01:59:02.564Z,94.59
2017-04-18T01:59:16.683Z,94.69
2017-04-18T01:59:30.851Z,94.98
2017-04-18T01:59:44.979Z,95.26
2017-04-18T01:59:59.075Z,94.88
2017-04-18T02:00:13.214Z,94.59
2017-04-18T02:00:27.349Z,94.49
2017-04-18T02:00:41.684Z,94.4
2017-04-18T02:00:55.813Z,94.79
2017-04-18T02:01:09.953Z,94.79
2017-04-18T02:01:24.035Z,94.4
2017-04-18T02:01:38.266Z,94.79
2017-04-18T02:01:52.411Z,95.07
2017-04-18T02:02:06.519Z,94.98
2017-04-18T02:02:20.610Z,94.59
2017-04-18T02:02:34.773Z,94.88
2017-04-18T02:02:49.002Z,94.88
2017-04-18T02:03:03.173Z,94.88
2017-04-18T02:03:17.308Z,94.31
2017-04-18T02:03:31.395Z,94.31
2017-04-18T02:03:45.521Z,94.88
2017-04-18T02:03:59.633Z,94.79
2017-04-18T02:04:13.766Z,94.79
2017-04-18T02:04:27.935Z,94.98
2017-04-18T02:04:42.289Z,94.98
2017-04-18T02:04:56.430Z,94.79
2017-04-18T02:05:10.520Z,94.98
2017-04-18T02:05:24.646Z,94.59
2017-04-18T02:05:38.775Z,94.88
2017-04-18T02:05:52.904Z,94.98
2017-04-18T02:06:07.083Z,94.21
2017-04-18T02:06:21.242Z,94.31
2017-04-18T02:06:35.316Z,94.79
2017-04-18T02:06:49.526Z,94.98
2017-04-18T02:07:03.688Z,94.49
2017-04-18T02:07:17.876Z,94.4
2017-04-18T02:07:31.985Z,94.59
2017-04-18T02:07:46.132Z,94.69
2017-04-18T02:08:00.269Z,95.07
2017-04-18T02:08:14.439Z,94.31
2017-04-18T02:08:28.684Z,94.79
2017-04-18T02:08:42.819Z,95.17
2017-04-18T02:08:57.046Z,94.79
2017-04-18T02:09:11.247Z,95.07
2017-04-18T02:09:25.425Z,94.98
2017-04-18T02:09:39.723Z,94.98
2017-04-18T02:10:02.177Z,94.69
2017-04-18T02:10:22.199Z,95.07
2017-04-18T02:10:49.104Z,94.88
2017-04-18T02:11:03.251Z,94.98
2017-04-18T02:11:17.411Z,94.98
2017-04-18T02:11:31.582Z,95.17
2017-04-18T02:11:45.731Z,94.79
2017-04-18T02:12:00.005Z,94.59
2017-04-18T02:12:14.185Z,94.49
2017-04-18T02:12:28.356Z,94.88
2017-04-18T02:12:42.490Z,94.79
2017-04-18T02:12:56.626Z,94.59
2017-04-18T02:13:13.335Z,94.69
2017-04-18T02:13:34.783Z,94.59
2017-04-18T02:13:56.512Z,94.98
2017-04-18T02:15:11.422Z,94.59
2017-04-18T02:15:26.278Z,94.98
2017-04-18T02:15:40.366Z,94.98
2017-04-18T02:15:54.764Z,95.07
2017-04-18T02:16:08.872Z,95.07
2017-04-18T02:16:23.005Z,94.79
2017-04-18T02:16:37.251Z,94.69
2017-04-18T02:16:51.413Z,95.17
2017-04-18T02:17:05.570Z,94.88
2017-04-18T02:17:19.746Z,94.98
2017-04-18T02:17:33.959Z,94.79
2017-04-18T02:17:48.127Z,94.79
2017-04-18T02:18:02.204Z,94.4
2017-04-18T02:18:16.324Z,94.31
2017-04-18T02:18:30.449Z,95.07
2017-04-18T02:18:44.693Z,94.98
2017-04-18T02:18:58.828Z,94.79
2017-04-18T02:19:12.971Z,95.46
2017-04-18T02:19:27.177Z,95.46
2017-04-18T02:19:41.322Z,94.88
2017-04-18T02:19:55.946Z,95.65
2017-04-18T02:20:10.115Z,94.88
2017-04-18T02:20:24.239Z,94.69
2017-04-18T02:20:38.397Z,94.79
2017-04-18T02:20:52.577Z,95.07
2017-04-18T02:21:06.738Z,95.07
2017-04-18T02:21:20.870Z,95.07
2017-04-18T02:21:35.005Z,94.98
2017-04-18T02:21:49.180Z,94.98
2017-04-18T02:22:03.340Z,95.17
2017-04-18T02:22:17.488Z,94.79
2017-04-18T02:22:31.640Z,94.79
2017-04-18T02:22:45.765Z,95.36
2017-04-18T02:22:59.974Z,95.26
2017-04-18T02:23:14.123Z,95.17
2017-04-18T02:23:28.332Z,95.03
2017-04-18T02:23:42.552Z,94.98
2017-04-18T02:23:56.669Z,94.98
2017-04-18T02:26:03.125Z,94.88
2017-04-18T02:26:20.369Z,94.31
2017-04-18T02:27:01.477Z,95.75
2017-04-18T02:28:17.623Z,95.75
2017-04-18T02:28:38.739Z,95.36
2017-04-18T02:28:55.966Z,95.84
2017-04-18T02:29:14.788Z,95.65
2017-04-18T02:29:28.950Z,95.75
2017-04-18T02:29:43.089Z,95.65
2017-04-18T02:29:57.247Z,95.41
2017-04-18T02:30:11.471Z,95.46
2017-04-18T02:30:25.576Z,95.65
2017-04-18T02:30:39.712Z,95.46
2017-04-18T02:30:53.827Z,95.46
2017-04-18T02:31:07.918Z,95.94
2017-04-18T02:31:22.141Z,95.84
2017-04-18T02:31:36.257Z,95.89
2017-04-18T02:31:50.391Z,95.55
2017-04-18T02:32:04.580Z,95.65
2017-04-18T02:32:18.791Z,95.41
2017-04-18T02:32:32.983Z,95.51
2017-04-18T02:32:47.128Z,95.6
2017-04-18T02:33:01.257Z,95.7
2017-04-18T02:33:15.457Z,95.6
2017-04-18T02:33:29.792Z,94.54
2017-04-18T02:33:43.967Z,95.79
2017-04-18T02:33:58.126Z,95.79
2017-04-18T02:34:12.320Z,95.89
2017-04-18T02:34:26.546Z,95.31
2017-04-18T02:34:40.777Z,95.51
2017-04-18T02:34:54.941Z,95.31
2017-04-18T02:35:09.032Z,95.31
2017-04-18T02:35:23.405Z,95.41
2017-04-18T02:35:37.543Z,95.7
2017-04-18T02:35:51.701Z,95.6
2017-04-18T02:36:05.812Z,95.7
2017-04-18T02:36:19.901Z,95.6
2017-04-18T02:36:34.048Z,94.74
2017-04-18T02:36:48.224Z,95.41
2017-04-18T02:37:02.336Z,95.41
2017-04-18T02:37:16.479Z,95.41
2017-04-18T02:37:30.627Z,95.41
2017-04-18T02:37:44.760Z,95.6
2017-04-18T02:37:58.956Z,95.6
2017-04-18T02:38:13.024Z,95.6
2017-04-18T02:38:27.166Z,95.51
2017-04-18T02:38:41.343Z,95.7
2017-04-18T02:38:55.455Z,95.7
2017-04-18T02:39:09.628Z,95.6
2017-04-18T02:39:23.734Z,95.51
2017-04-18T02:39:37.893Z,95.41
2017-04-18T02:39:52.044Z,95.6
2017-04-18T02:40:06.193Z,95.41
2017-04-18T02:40:20.377Z,95.51
2017-04-18T02:40:34.550Z,95.51
2017-04-18T02:40:48.722Z,95.41
2017-04-18T02:41:02.835Z,95.6
2017-04-18T02:41:17.661Z,95.41
2017-04-18T02:41:31.869Z,95.79
2017-04-18T02:41:46.048Z,95.41
2017-04-18T02:42:00.195Z,95.7
2017-04-18T02:42:14.336Z,95.31
2017-04-18T02:42:28.483Z,95.41
2017-04-18T02:42:42.662Z,95.51
2017-04-18T02:42:56.861Z,95.31
2017-04-18T02:43:11.024Z,95.51
2017-04-18T02:43:25.227Z,95.7
2017-04-18T02:43:39.438Z,95.41
2017-04-18T02:43:53.570Z,95.79
2017-04-18T02:44:07.748Z,95.51
2017-04-18T02:44:21.880Z,95.79
2017-04-18T02:44:35.989Z,95.89
2017-04-18T02:44:50.648Z,95.12
2017-04-18T02:45:09.302Z,95.65
2017-04-18T02:45:23.519Z,95.6
2017-04-18T02:45:37.660Z,95.31
2017-04-18T02:45:51.782Z,96.56
2017-04-18T02:46:06.238Z,96.61
2017-04-18T02:46:25.873Z,97.04
2017-04-18T02:46:39.991Z,96.66
2017-04-18T02:46:54.150Z,96.85
2017-04-18T02:47:08.352Z,96.56
2017-04-18T02:47:22.454Z,96.56
2017-04-18T02:47:36.549Z,95.89
2017-04-18T02:47:50.679Z,96.66
2017-04-18T02:48:04.808Z,96.56
2017-04-18T02:48:18.939Z,96.75
2017-04-18T02:48:33.053Z,96.37
2017-04-18T02:48:47.245Z,96.61
2017-04-18T02:49:01.411Z,96.37
2017-04-18T02:49:15.475Z,96.75
2017-04-18T02:49:29.593Z,96.66
2017-04-18T02:49:43.772Z,96.13
2017-04-18T02:49:57.892Z,95.89
2017-04-18T02:50:12.081Z,96.18
2017-04-18T02:50:26.238Z,96.56
2017-04-18T02:50:40.592Z,96.94
2017-04-18T02:50:54.700Z,96.56
2017-04-18T02:51:08.868Z,96.27
2017-04-18T02:51:23.009Z,96.22
2017-04-18T02:51:37.183Z,95.98
2017-04-18T02:51:51.344Z,96.08
2017-04-18T02:52:05.463Z,96.32
2017-04-18T02:52:19.564Z,96.27
2017-04-18T02:52:33.714Z,96.42
2017-04-18T02:52:47.898Z,96.8
2017-04-18T02:53:02.044Z,96.8
2017-04-18T02:53:16.216Z,96.13
2017-04-18T02:53:30.401Z,96.8
2017-04-18T02:53:44.570Z,96.89
2017-04-18T02:53:58.709Z,96.56
2017-04-18T02:54:12.849Z,96.32
2017-04-18T02:54:26.963Z,96.61
2017-04-18T02:54:41.087Z,96.89
2017-04-18T02:54:55.269Z,96.8
2017-04-18T02:55:09.561Z,97.38
2017-04-18T02:55:23.755Z,97.09
2017-04-18T02:55:37.947Z,97.09
2017-04-18T02:55:52.073Z,97.09
2017-04-18T02:56:06.202Z,97.19
2017-04-18T02:56:20.318Z,96.89
2017-04-18T02:56:34.480Z,97.28
2017-04-18T02:56:48.593Z,96.99
2017-04-18T02:57:02.734Z,97.47
2017-04-18T02:57:16.857Z,97.28
2017-04-18T02:57:31.258Z,97.19
2017-04-18T02:57:45.405Z,97.19
2017-04-18T02:57:59.545Z,97.38
2017-04-18T02:58:13.765Z,97.28
2017-04-18T02:58:27.965Z,96.99
2017-04-18T02:58:42.189Z,96.8
2017-04-18T02:58:56.296Z,96.99
2017-04-18T02:59:10.456Z,97.09
2017-04-18T02:59:24.627Z,96.89
2017-04-18T02:59:38.833Z,97.09
2017-04-18T02:59:53.001Z,97.38
2017-04-18T03:00:07.126Z,96.89
2017-04-18T03:00:21.203Z,97.28
2017-04-18T03:00:35.357Z,96.99
2017-04-18T03:00:49.499Z,97.19
2017-04-18T03:01:03.632Z,97.47
2017-04-18T03:01:17.789Z,97.09
2017-04-18T03:01:31.873Z,97.09
2017-04-18T03:01:45.995Z,97.19
2017-04-18T03:02:00.132Z,97.19
2017-04-18T03:02:14.250Z,96.99
2017-04-18T03:02:28.377Z,97.47
2017-04-18T03:02:42.482Z,97.38
2017-04-18T03:02:56.564Z,97.66
2017-04-18T03:03:10.842Z,97.28
2017-04-18T03:03:24.976Z,96.99
2017-04-18T03:03:39.112Z,97.14
2017-04-18T03:03:53.274Z,97.61
2017-04-18T03:04:07.346Z,97.14
2017-04-18T03:04:21.530Z,97.28
2017-04-18T03:04:35.732Z,97.23
2017-04-18T03:04:49.872Z,97.19
2017-04-18T03:05:03.979Z,97.14
2017-04-18T03:05:18.163Z,97.04
2017-04-18T03:05:32.409Z,96.94
2017-04-18T03:05:46.913Z,97.14
2017-04-18T03:06:01.125Z,97.38
2017-04-18T03:06:15.317Z,97.23
2017-04-18T03:06:29.510Z,97.47
2017-04-18T03:06:43.649Z,96.85
2017-04-18T03:06:57.775Z,97.47
2017-04-18T03:07:11.944Z,97.09
2017-04-18T03:07:26.060Z,96.94
2017-04-18T03:07:40.249Z,96.75
2017-04-18T03:07:54.344Z,96.8
2017-04-18T03:08:08.537Z,96.89
2017-04-18T03:08:22.705Z,96.94
2017-04-18T03:08:36.847Z,97.33
2017-04-18T03:08:51.019Z,97.19
2017-04-18T03:09:05.197Z,97.33